sensor_id;sensor_type;location;lat;lon;timestamp;pressure;altitude;pressure_sealevel;temperature;humidity
61035;BME280;46916;40.564;-7.958;2023-04-27T00:01:13;97229.63;;;19.13;59.29
61035;BME280;46916;40.564;-7.958;2023-04-27T00:03:13;97237.59;;;19.13;59.53
61035;BME280;46916;40.564;-7.958;2023-04-27T00:05:15;97223.25;;;19.07;59.71
61035;BME280;46916;40.564;-7.958;2023-04-27T00:07:16;97222.16;;;19.01;59.68
61035;BME280;46916;40.564;-7.958;2023-04-27T00:09:16;97234.56;;;18.94;59.84
61035;BME280;46916;40.564;-7.958;2023-04-27T00:11:17;97225.22;;;18.84;60.15
61035;BME280;46916;40.564;-7.958;2023-04-27T00:13:18;97229.06;;;18.81;60.12
61035;BME280;46916;40.564;-7.958;2023-04-27T00:15:19;97210.03;;;18.77;60.37
61035;BME280;46916;40.564;-7.958;2023-04-27T00:17:19;97212.06;;;18.75;60.60
61035;BME280;46916;40.564;-7.958;2023-04-27T00:19:20;97202.34;;;18.68;60.83
61035;BME280;46916;40.564;-7.958;2023-04-27T00:21:22;97203.03;;;18.70;60.83
61035;BME280;46916;40.564;-7.958;2023-04-27T00:23:22;97214.38;;;18.78;60.74
61035;BME280;46916;40.564;-7.958;2023-04-27T00:25:23;97213.78;;;18.83;60.51
61035;BME280;46916;40.564;-7.958;2023-04-27T00:27:24;97213.44;;;18.86;60.49
61035;BME280;46916;40.564;-7.958;2023-04-27T00:29:24;97207.09;;;18.87;60.47
61035;BME280;46916;40.564;-7.958;2023-04-27T00:31:25;97213.69;;;18.91;60.32
61035;BME280;46916;40.564;-7.958;2023-04-27T00:33:26;97222.22;;;18.87;60.21
61035;BME280;46916;40.564;-7.958;2023-04-27T00:35:27;97213.03;;;18.89;60.23
61035;BME280;46916;40.564;-7.958;2023-04-27T00:37:28;97211.47;;;18.95;60.31
61035;BME280;46916;40.564;-7.958;2023-04-27T00:39:28;97201.97;;;18.86;60.01
61035;BME280;46916;40.564;-7.958;2023-04-27T00:41:29;97211.41;;;18.88;60.47
61035;BME280;46916;40.564;-7.958;2023-04-27T00:43:30;97211.41;;;18.88;60.60
61035;BME280;46916;40.564;-7.958;2023-04-27T00:45:40;97216.97;;;18.93;60.53
61035;BME280;46916;40.564;-7.958;2023-04-27T00:47:43;97205.97;;;18.96;60.45
61035;BME280;46916;40.564;-7.958;2023-04-27T00:49:43;97205.59;;;18.99;60.25
61035;BME280;46916;40.564;-7.958;2023-04-27T00:51:44;97208.88;;;19.01;60.22
61035;BME280;46916;40.564;-7.958;2023-04-27T00:53:45;97207.88;;;19.02;60.16
61035;BME280;46916;40.564;-7.958;2023-04-27T00:55:46;97201.94;;;19.00;60.34
61035;BME280;46916;40.564;-7.958;2023-04-27T00:57:47;97206.69;;;19.05;60.44
61035;BME280;46916;40.564;-7.958;2023-04-27T00:59:47;97200.56;;;19.04;60.24
61035;BME280;46916;40.564;-7.958;2023-04-27T01:01:48;97197.28;;;19.02;60.26
61035;BME280;46916;40.564;-7.958;2023-04-27T01:03:49;97186.84;;;19.01;59.90
61035;BME280;46916;40.564;-7.958;2023-04-27T01:05:50;97178.25;;;18.99;59.98
61035;BME280;46916;40.564;-7.958;2023-04-27T01:07:51;97179.94;;;18.85;60.46
61035;BME280;46916;40.564;-7.958;2023-04-27T01:09:53;97184.53;;;18.76;60.74
61035;BME280;46916;40.564;-7.958;2023-04-27T01:11:54;97187.00;;;18.78;60.63
61035;BME280;46916;40.564;-7.958;2023-04-27T01:13:55;97185.81;;;18.80;61.07
61035;BME280;46916;40.564;-7.958;2023-04-27T01:15:56;97179.69;;;18.80;61.05
61035;BME280;46916;40.564;-7.958;2023-04-27T01:18:01;97178.28;;;18.84;60.96
61035;BME280;46916;40.564;-7.958;2023-04-27T01:20:02;97171.34;;;18.83;61.06
61035;BME280;46916;40.564;-7.958;2023-04-27T01:22:06;97172.78;;;18.86;61.03
61035;BME280;46916;40.564;-7.958;2023-04-27T01:24:07;97171.97;;;18.85;60.95
61035;BME280;46916;40.564;-7.958;2023-04-27T01:26:11;97158.91;;;18.84;61.11
61035;BME280;46916;40.564;-7.958;2023-04-27T01:28:15;97156.25;;;18.84;61.39
61035;BME280;46916;40.564;-7.958;2023-04-27T01:30:16;97149.69;;;18.79;61.39
61035;BME280;46916;40.564;-7.958;2023-04-27T01:32:17;97144.00;;;18.83;61.32
61035;BME280;46916;40.564;-7.958;2023-04-27T01:34:18;97130.47;;;18.77;61.31
61035;BME280;46916;40.564;-7.958;2023-04-27T01:36:21;97122.78;;;18.68;60.89
61035;BME280;46916;40.564;-7.958;2023-04-27T01:38:22;97137.78;;;18.61;60.81
61035;BME280;46916;40.564;-7.958;2023-04-27T01:40:23;97152.91;;;18.60;60.95
61035;BME280;46916;40.564;-7.958;2023-04-27T01:42:24;97138.94;;;18.51;61.21
61035;BME280;46916;40.564;-7.958;2023-04-27T01:44:25;97144.59;;;18.48;61.86
61035;BME280;46916;40.564;-7.958;2023-04-27T01:46:27;97147.19;;;18.42;62.12
61035;BME280;46916;40.564;-7.958;2023-04-27T01:48:28;97146.47;;;18.33;62.57
61035;BME280;46916;40.564;-7.958;2023-04-27T01:50:29;97136.25;;;18.30;62.73
61035;BME280;46916;40.564;-7.958;2023-04-27T01:52:29;97142.00;;;18.34;62.75
61035;BME280;46916;40.564;-7.958;2023-04-27T01:54:30;97130.03;;;18.23;63.03
61035;BME280;46916;40.564;-7.958;2023-04-27T01:56:31;97131.59;;;18.17;63.33
61035;BME280;46916;40.564;-7.958;2023-04-27T01:58:32;97116.41;;;18.11;63.51
61035;BME280;46916;40.564;-7.958;2023-04-27T02:00:32;97113.22;;;18.16;63.58
61035;BME280;46916;40.564;-7.958;2023-04-27T02:02:33;97111.22;;;18.18;63.43
61035;BME280;46916;40.564;-7.958;2023-04-27T02:04:34;97119.06;;;18.26;63.26
61035;BME280;46916;40.564;-7.958;2023-04-27T02:06:35;97123.81;;;18.30;62.96
61035;BME280;46916;40.564;-7.958;2023-04-27T02:08:36;97123.25;;;18.35;62.62
61035;BME280;46916;40.564;-7.958;2023-04-27T02:10:37;97131.66;;;18.39;62.39
61035;BME280;46916;40.564;-7.958;2023-04-27T02:12:37;97139.03;;;18.43;62.41
61035;BME280;46916;40.564;-7.958;2023-04-27T02:14:39;97129.81;;;18.39;62.32
61035;BME280;46916;40.564;-7.958;2023-04-27T02:16:39;97137.22;;;18.44;62.49
61035;BME280;46916;40.564;-7.958;2023-04-27T02:18:40;97131.91;;;18.44;62.26
61035;BME280;46916;40.564;-7.958;2023-04-27T02:20:43;97126.16;;;18.40;62.35
61035;BME280;46916;40.564;-7.958;2023-04-27T02:22:44;97131.09;;;18.43;62.34
61035;BME280;46916;40.564;-7.958;2023-04-27T02:24:44;97134.09;;;18.40;62.28
61035;BME280;46916;40.564;-7.958;2023-04-27T02:26:45;97119.56;;;18.36;62.51
61035;BME280;46916;40.564;-7.958;2023-04-27T02:28:47;97120.13;;;18.31;62.79
61035;BME280;46916;40.564;-7.958;2023-04-27T02:30:48;97121.34;;;18.29;62.70
61035;BME280;46916;40.564;-7.958;2023-04-27T02:32:49;97120.69;;;18.27;62.85
61035;BME280;46916;40.564;-7.958;2023-04-27T02:34:50;97123.72;;;18.24;62.84
61035;BME280;46916;40.564;-7.958;2023-04-27T02:36:50;97128.03;;;18.25;62.82
61035;BME280;46916;40.564;-7.958;2023-04-27T02:38:51;97123.53;;;18.25;62.78
61035;BME280;46916;40.564;-7.958;2023-04-27T02:40:53;97120.09;;;18.10;62.95
61035;BME280;46916;40.564;-7.958;2023-04-27T02:42:54;97114.16;;;17.93;63.50
61035;BME280;46916;40.564;-7.958;2023-04-27T02:44:55;97096.06;;;17.82;63.69
61035;BME280;46916;40.564;-7.958;2023-04-27T02:46:55;97098.25;;;17.78;63.84
61035;BME280;46916;40.564;-7.958;2023-04-27T02:48:56;97102.94;;;17.76;63.46
61035;BME280;46916;40.564;-7.958;2023-04-27T02:50:57;97096.97;;;17.74;62.78
61035;BME280;46916;40.564;-7.958;2023-04-27T02:52:58;97098.97;;;17.72;62.46
61035;BME280;46916;40.564;-7.958;2023-04-27T02:54:59;97096.59;;;17.63;62.67
61035;BME280;46916;40.564;-7.958;2023-04-27T02:57:00;97104.91;;;17.60;62.77
61035;BME280;46916;40.564;-7.958;2023-04-27T02:59:01;97114.22;;;17.55;62.86
61035;BME280;46916;40.564;-7.958;2023-04-27T03:01:01;97118.16;;;17.60;62.84
61035;BME280;46916;40.564;-7.958;2023-04-27T03:03:02;97124.53;;;17.65;62.87
61035;BME280;46916;40.564;-7.958;2023-04-27T03:05:03;97121.16;;;17.71;62.52
61035;BME280;46916;40.564;-7.958;2023-04-27T03:07:04;97126.84;;;17.83;62.52
61035;BME280;46916;40.564;-7.958;2023-04-27T03:09:06;97127.84;;;17.82;61.94
61035;BME280;46916;40.564;-7.958;2023-04-27T03:11:07;97125.75;;;17.77;61.98
61035;BME280;46916;40.564;-7.958;2023-04-27T03:13:09;97121.47;;;17.76;62.06
61035;BME280;46916;40.564;-7.958;2023-04-27T03:15:10;97125.97;;;17.76;62.16
61035;BME280;46916;40.564;-7.958;2023-04-27T03:17:11;97123.63;;;17.73;62.53
61035;BME280;46916;40.564;-7.958;2023-04-27T03:19:13;97114.97;;;17.64;62.36
61035;BME280;46916;40.564;-7.958;2023-04-27T03:21:14;97107.56;;;17.60;62.61
61035;BME280;46916;40.564;-7.958;2023-04-27T03:23:16;97113.69;;;17.60;62.41
61035;BME280;46916;40.564;-7.958;2023-04-27T03:25:17;97108.94;;;17.55;62.51
61035;BME280;46916;40.564;-7.958;2023-04-27T03:27:17;97111.56;;;17.55;62.68
61035;BME280;46916;40.564;-7.958;2023-04-27T03:29:18;97109.91;;;17.54;62.78
61035;BME280;46916;40.564;-7.958;2023-04-27T03:31:19;97113.03;;;17.58;62.51
61035;BME280;46916;40.564;-7.958;2023-04-27T03:33:19;97104.91;;;17.60;62.40
61035;BME280;46916;40.564;-7.958;2023-04-27T03:35:20;97106.00;;;17.65;62.37
61035;BME280;46916;40.564;-7.958;2023-04-27T03:37:21;97113.13;;;17.65;62.18
61035;BME280;46916;40.564;-7.958;2023-04-27T03:39:22;97113.41;;;17.70;62.12
61035;BME280;46916;40.564;-7.958;2023-04-27T03:41:22;97114.06;;;17.72;62.07
61035;BME280;46916;40.564;-7.958;2023-04-27T03:43:24;97105.75;;;17.75;61.96
61035;BME280;46916;40.564;-7.958;2023-04-27T03:45:25;97106.03;;;17.80;61.62
61035;BME280;46916;40.564;-7.958;2023-04-27T03:47:26;97111.50;;;17.78;61.34
61035;BME280;46916;40.564;-7.958;2023-04-27T03:49:26;97108.22;;;17.76;61.20
61035;BME280;46916;40.564;-7.958;2023-04-27T03:51:29;97104.28;;;17.72;61.40
61035;BME280;46916;40.564;-7.958;2023-04-27T03:53:32;97111.41;;;17.72;61.20
61035;BME280;46916;40.564;-7.958;2023-04-27T03:55:33;97100.44;;;17.75;61.14
61035;BME280;46916;40.564;-7.958;2023-04-27T03:57:33;97100.34;;;17.68;61.35
61035;BME280;46916;40.564;-7.958;2023-04-27T03:59:34;97100.69;;;17.65;60.96
61035;BME280;46916;40.564;-7.958;2023-04-27T04:01:37;97111.50;;;17.64;61.14
61035;BME280;46916;40.564;-7.958;2023-04-27T04:03:39;97108.19;;;17.62;61.04
61035;BME280;46916;40.564;-7.958;2023-04-27T04:05:41;97104.38;;;17.64;61.20
61035;BME280;46916;40.564;-7.958;2023-04-27T04:07:42;97103.81;;;17.69;61.38
61035;BME280;46916;40.564;-7.958;2023-04-27T04:09:44;97098.97;;;17.72;61.45
61035;BME280;46916;40.564;-7.958;2023-04-27T04:11:44;97102.56;;;17.79;61.15
61035;BME280;46916;40.564;-7.958;2023-04-27T04:13:48;97099.28;;;17.77;61.24
61035;BME280;46916;40.564;-7.958;2023-04-27T04:15:49;97097.91;;;17.81;61.25
61035;BME280;46916;40.564;-7.958;2023-04-27T04:17:50;97094.91;;;17.85;60.97
61035;BME280;46916;40.564;-7.958;2023-04-27T04:19:52;97098.16;;;17.87;61.14
61035;BME280;46916;40.564;-7.958;2023-04-27T04:21:52;97095.06;;;17.83;60.96
61035;BME280;46916;40.564;-7.958;2023-04-27T04:23:54;97092.41;;;17.83;61.05
61035;BME280;46916;40.564;-7.958;2023-04-27T04:25:56;97087.78;;;17.85;60.99
61035;BME280;46916;40.564;-7.958;2023-04-27T04:27:59;97085.47;;;17.82;60.92
61035;BME280;46916;40.564;-7.958;2023-04-27T04:30:00;97083.03;;;17.80;61.03
61035;BME280;46916;40.564;-7.958;2023-04-27T04:32:04;97086.50;;;17.81;60.97
61035;BME280;46916;40.564;-7.958;2023-04-27T04:34:06;97083.47;;;17.84;60.54
61035;BME280;46916;40.564;-7.958;2023-04-27T04:36:08;97084.09;;;17.86;60.58
61035;BME280;46916;40.564;-7.958;2023-04-27T04:38:10;97083.91;;;17.88;60.65
61035;BME280;46916;40.564;-7.958;2023-04-27T04:40:11;97074.69;;;17.83;60.56
61035;BME280;46916;40.564;-7.958;2023-04-27T04:42:13;97077.78;;;17.87;60.56
61035;BME280;46916;40.564;-7.958;2023-04-27T04:44:15;97083.38;;;17.92;60.47
61035;BME280;46916;40.564;-7.958;2023-04-27T04:46:18;97081.56;;;17.93;60.23
61035;BME280;46916;40.564;-7.958;2023-04-27T04:48:19;97082.00;;;17.96;60.24
61035;BME280;46916;40.564;-7.958;2023-04-27T04:50:20;97076.72;;;17.96;60.29
61035;BME280;46916;40.564;-7.958;2023-04-27T04:52:21;97069.19;;;18.00;60.11
61035;BME280;46916;40.564;-7.958;2023-04-27T04:54:22;97069.19;;;18.00;60.35
61035;BME280;46916;40.564;-7.958;2023-04-27T04:56:23;97073.09;;;18.04;60.35
61035;BME280;46916;40.564;-7.958;2023-04-27T04:58:23;97073.97;;;18.04;60.53
61035;BME280;46916;40.564;-7.958;2023-04-27T05:00:25;97074.78;;;18.05;60.69
61035;BME280;46916;40.564;-7.958;2023-04-27T05:02:26;97077.44;;;18.05;60.91
61035;BME280;46916;40.564;-7.958;2023-04-27T05:04:26;97094.75;;;18.07;61.22
61035;BME280;46916;40.564;-7.958;2023-04-27T05:06:27;97102.91;;;18.06;61.40
61035;BME280;46916;40.564;-7.958;2023-04-27T05:08:28;97099.59;;;18.04;61.62
61035;BME280;46916;40.564;-7.958;2023-04-27T05:10:29;97098.78;;;18.03;61.51
61035;BME280;46916;40.564;-7.958;2023-04-27T05:12:30;97095.31;;;18.03;61.62
61035;BME280;46916;40.564;-7.958;2023-04-27T05:14:30;97097.16;;;18.02;61.79
61035;BME280;46916;40.564;-7.958;2023-04-27T05:16:31;97099.81;;;18.02;61.90
61035;BME280;46916;40.564;-7.958;2023-04-27T05:18:33;97100.00;;;18.01;62.08
61035;BME280;46916;40.564;-7.958;2023-04-27T05:20:34;97100.81;;;18.01;61.91
61035;BME280;46916;40.564;-7.958;2023-04-27T05:22:35;97093.50;;;18.03;61.60
61035;BME280;46916;40.564;-7.958;2023-04-27T05:24:36;97093.03;;;18.00;61.75
61035;BME280;46916;40.564;-7.958;2023-04-27T05:26:36;97086.91;;;17.99;62.02
61035;BME280;46916;40.564;-7.958;2023-04-27T05:28:37;97087.31;;;17.96;61.98
61035;BME280;46916;40.564;-7.958;2023-04-27T05:30:38;97097.91;;;17.96;61.98
61035;BME280;46916;40.564;-7.958;2023-04-27T05:32:38;97090.31;;;17.93;61.58
61035;BME280;46916;40.564;-7.958;2023-04-27T05:34:39;97087.66;;;17.93;61.46
61035;BME280;46916;40.564;-7.958;2023-04-27T05:36:40;97088.28;;;17.95;61.14
61035;BME280;46916;40.564;-7.958;2023-04-27T05:38:41;97086.84;;;17.93;61.15
61035;BME280;46916;40.564;-7.958;2023-04-27T05:40:42;97089.97;;;17.96;61.07
61035;BME280;46916;40.564;-7.958;2023-04-27T05:42:45;97086.41;;;17.89;60.72
61035;BME280;46916;40.564;-7.958;2023-04-27T05:44:46;97101.63;;;17.87;60.84
61035;BME280;46916;40.564;-7.958;2023-04-27T05:46:46;97100.75;;;17.80;60.75
61035;BME280;46916;40.564;-7.958;2023-04-27T05:48:47;97093.16;;;17.77;60.66
61035;BME280;46916;40.564;-7.958;2023-04-27T05:50:48;97089.50;;;17.78;60.44
61035;BME280;46916;40.564;-7.958;2023-04-27T05:52:48;97094.44;;;17.81;60.43
61035;BME280;46916;40.564;-7.958;2023-04-27T05:54:49;97095.44;;;17.80;60.26
61035;BME280;46916;40.564;-7.958;2023-04-27T05:56:50;97095.06;;;17.83;60.13
61035;BME280;46916;40.564;-7.958;2023-04-27T05:58:51;97086.13;;;17.84;60.09
61035;BME280;46916;40.564;-7.958;2023-04-27T06:00:52;97100.25;;;17.91;59.96
61035;BME280;46916;40.564;-7.958;2023-04-27T06:02:53;97099.28;;;17.92;59.93
61035;BME280;46916;40.564;-7.958;2023-04-27T06:04:54;97107.59;;;17.89;59.40
61035;BME280;46916;40.564;-7.958;2023-04-27T06:06:55;97109.31;;;17.82;59.50
61035;BME280;46916;40.564;-7.958;2023-04-27T06:08:55;97110.38;;;17.73;59.62
61035;BME280;46916;40.564;-7.958;2023-04-27T06:10:56;97108.75;;;17.72;59.80
61035;BME280;46916;40.564;-7.958;2023-04-27T06:12:57;97109.88;;;17.77;60.11
61035;BME280;46916;40.564;-7.958;2023-04-27T06:14:57;97111.88;;;17.75;60.01
61035;BME280;46916;40.564;-7.958;2023-04-27T06:16:58;97101.63;;;17.72;60.44
61035;BME280;46916;40.564;-7.958;2023-04-27T06:18:59;97098.53;;;17.69;60.72
61035;BME280;46916;40.564;-7.958;2023-04-27T06:21:00;97099.53;;;17.68;61.02
61035;BME280;46916;40.564;-7.958;2023-04-27T06:23:01;97101.25;;;17.61;61.36
61035;BME280;46916;40.564;-7.958;2023-04-27T06:25:03;97115.50;;;17.60;61.59
61035;BME280;46916;40.564;-7.958;2023-04-27T06:27:03;97117.69;;;17.56;61.93
61035;BME280;46916;40.564;-7.958;2023-04-27T06:29:04;97125.78;;;17.54;62.43
61035;BME280;46916;40.564;-7.958;2023-04-27T06:31:07;97126.19;;;17.51;62.54
61035;BME280;46916;40.564;-7.958;2023-04-27T06:33:08;97122.06;;;17.49;63.14
61035;BME280;46916;40.564;-7.958;2023-04-27T06:35:09;97126.41;;;17.42;63.48
61035;BME280;46916;40.564;-7.958;2023-04-27T06:37:10;97111.63;;;17.32;63.71
61035;BME280;46916;40.564;-7.958;2023-04-27T06:39:10;97118.47;;;17.27;64.04
61035;BME280;46916;40.564;-7.958;2023-04-27T06:41:11;97120.34;;;17.18;64.57
61035;BME280;46916;40.564;-7.958;2023-04-27T06:43:12;97123.19;;;17.17;64.61
61035;BME280;46916;40.564;-7.958;2023-04-27T06:45:13;97126.16;;;17.14;64.44
61035;BME280;46916;40.564;-7.958;2023-04-27T06:47:13;97122.91;;;17.12;64.96
61035;BME280;46916;40.564;-7.958;2023-04-27T06:49:14;97133.94;;;17.15;64.88
61035;BME280;46916;40.564;-7.958;2023-04-27T06:51:15;97131.69;;;17.27;64.57
61035;BME280;46916;40.564;-7.958;2023-04-27T06:53:16;97132.81;;;17.32;64.41
61035;BME280;46916;40.564;-7.958;2023-04-27T06:55:16;97138.22;;;17.39;64.24
61035;BME280;46916;40.564;-7.958;2023-04-27T06:57:17;97142.41;;;17.48;63.98
61035;BME280;46916;40.564;-7.958;2023-04-27T06:59:17;97145.63;;;17.58;63.94
61035;BME280;46916;40.564;-7.958;2023-04-27T07:01:18;97152.31;;;17.69;63.89
61035;BME280;46916;40.564;-7.958;2023-04-27T07:03:20;97153.44;;;17.75;63.75
61035;BME280;46916;40.564;-7.958;2023-04-27T07:05:21;97158.38;;;17.78;63.86
61035;BME280;46916;40.564;-7.958;2023-04-27T07:07:22;97157.34;;;17.79;63.79
61035;BME280;46916;40.564;-7.958;2023-04-27T07:09:22;97161.13;;;17.85;64.11
61035;BME280;46916;40.564;-7.958;2023-04-27T07:11:23;97161.94;;;17.85;64.70
61035;BME280;46916;40.564;-7.958;2023-04-27T07:13:24;97159.66;;;17.82;65.30
61035;BME280;46916;40.564;-7.958;2023-04-27T07:15:25;97151.91;;;17.80;65.71
61035;BME280;46916;40.564;-7.958;2023-04-27T07:17:26;97152.34;;;17.84;65.56
61035;BME280;46916;40.564;-7.958;2023-04-27T07:19:26;97148.97;;;17.90;65.07
61035;BME280;46916;40.564;-7.958;2023-04-27T07:21:27;97153.25;;;17.91;64.68
61035;BME280;46916;40.564;-7.958;2023-04-27T07:23:28;97143.94;;;17.95;64.34
61035;BME280;46916;40.564;-7.958;2023-04-27T07:25:28;97150.25;;;18.09;64.01
61035;BME280;46916;40.564;-7.958;2023-04-27T07:27:34;97137.72;;;18.18;63.77
61035;BME280;46916;40.564;-7.958;2023-04-27T07:29:39;97131.38;;;18.34;63.23
61035;BME280;46916;40.564;-7.958;2023-04-27T07:31:45;97139.28;;;18.48;63.40
61035;BME280;46916;40.564;-7.958;2023-04-27T07:33:46;97155.28;;;18.70;63.40
61035;BME280;46916;40.564;-7.958;2023-04-27T07:35:47;97148.91;;;18.86;63.03
61035;BME280;46916;40.564;-7.958;2023-04-27T07:37:49;97150.50;;;19.01;62.87
61035;BME280;46916;40.564;-7.958;2023-04-27T07:39:51;97149.78;;;19.14;62.39
61035;BME280;46916;40.564;-7.958;2023-04-27T07:41:52;97157.63;;;19.22;62.05
61035;BME280;46916;40.564;-7.958;2023-04-27T07:43:54;97172.59;;;19.30;61.42
61035;BME280;46916;40.564;-7.958;2023-04-27T07:45:54;97159.78;;;19.34;60.83
61035;BME280;46916;40.564;-7.958;2023-04-27T07:47:58;97164.94;;;19.42;60.73
61035;BME280;46916;40.564;-7.958;2023-04-27T07:49:59;97154.97;;;19.44;60.23
61035;BME280;46916;40.564;-7.958;2023-04-27T07:52:00;97161.53;;;19.48;60.58
61035;BME280;46916;40.564;-7.958;2023-04-27T07:54:02;97159.94;;;19.53;60.42
61035;BME280;46916;40.564;-7.958;2023-04-27T07:56:05;97157.50;;;19.59;60.38
61035;BME280;46916;40.564;-7.958;2023-04-27T07:58:06;97163.13;;;19.64;60.56
61035;BME280;46916;40.564;-7.958;2023-04-27T08:00:07;97163.72;;;19.66;59.56
61035;BME280;46916;40.564;-7.958;2023-04-27T08:02:13;97157.81;;;19.64;60.46
61035;BME280;46916;40.564;-7.958;2023-04-27T08:04:16;97160.25;;;19.65;61.13
61035;BME280;46916;40.564;-7.958;2023-04-27T08:06:18;97162.72;;;19.67;61.81
61035;BME280;46916;40.564;-7.958;2023-04-27T08:08:19;97160.06;;;19.67;62.26
61035;BME280;46916;40.564;-7.958;2023-04-27T08:10:20;97157.84;;;19.70;62.45
61035;BME280;46916;40.564;-7.958;2023-04-27T08:12:21;97165.38;;;19.67;61.71
61035;BME280;46916;40.564;-7.958;2023-04-27T08:14:22;97157.97;;;19.62;61.99
61035;BME280;46916;40.564;-7.958;2023-04-27T08:16:29;97162.47;;;19.62;61.26
61035;BME280;46916;40.564;-7.958;2023-04-27T08:18:33;97165.38;;;19.67;61.33
61035;BME280;46916;40.564;-7.958;2023-04-27T08:20:34;97163.13;;;19.64;61.78
61035;BME280;46916;40.564;-7.958;2023-04-27T08:22:34;97165.38;;;19.67;62.19
61035;BME280;46916;40.564;-7.958;2023-04-27T08:24:35;97172.97;;;19.70;62.37
61035;BME280;46916;40.564;-7.958;2023-04-27T08:26:36;97167.44;;;19.71;62.63
61035;BME280;46916;40.564;-7.958;2023-04-27T08:28:37;97170.75;;;19.73;62.70
61035;BME280;46916;40.564;-7.958;2023-04-27T08:30:38;97179.75;;;19.79;62.29
61035;BME280;46916;40.564;-7.958;2023-04-27T08:32:39;97193.72;;;19.88;62.52
61035;BME280;46916;40.564;-7.958;2023-04-27T08:34:44;97182.53;;;19.92;61.96
61035;BME280;46916;40.564;-7.958;2023-04-27T08:36:46;97184.38;;;19.98;62.02
61035;BME280;46916;40.564;-7.958;2023-04-27T08:38:46;97192.81;;;20.02;61.96
61035;BME280;46916;40.564;-7.958;2023-04-27T08:40:47;97188.75;;;20.06;61.92
61035;BME280;46916;40.564;-7.958;2023-04-27T08:42:55;97192.44;;;20.12;61.85
61035;BME280;46916;40.564;-7.958;2023-04-27T08:44:58;97198.00;;;20.17;61.15
61035;BME280;46916;40.564;-7.958;2023-04-27T08:46:59;97190.88;;;20.24;61.01
61035;BME280;46916;40.564;-7.958;2023-04-27T08:49:00;97198.91;;;20.31;60.54
61035;BME280;46916;40.564;-7.958;2023-04-27T08:51:01;97187.88;;;20.40;59.50
61035;BME280;46916;40.564;-7.958;2023-04-27T08:53:02;97188.75;;;20.47;58.70
61035;BME280;46916;40.564;-7.958;2023-04-27T08:55:03;97186.53;;;20.51;58.28
61035;BME280;46916;40.564;-7.958;2023-04-27T08:57:12;97187.19;;;20.60;57.99
61035;BME280;46916;40.564;-7.958;2023-04-27T08:59:13;97191.91;;;20.64;58.01
61035;BME280;46916;40.564;-7.958;2023-04-27T09:01:15;97187.00;;;20.68;58.42
61035;BME280;46916;40.564;-7.958;2023-04-27T09:03:23;97201.56;;;20.72;58.19
61035;BME280;46916;40.564;-7.958;2023-04-27T09:05:24;97197.88;;;20.73;57.85
61035;BME280;46916;40.564;-7.958;2023-04-27T09:07:25;97191.34;;;20.75;57.27
61035;BME280;46916;40.564;-7.958;2023-04-27T09:09:26;97190.72;;;20.80;56.70
61035;BME280;46916;40.564;-7.958;2023-04-27T09:11:30;97190.94;;;20.85;55.93
61035;BME280;46916;40.564;-7.958;2023-04-27T09:13:38;97186.88;;;20.89;56.01
61035;BME280;46916;40.564;-7.958;2023-04-27T09:15:44;97196.72;;;20.95;56.35
61035;BME280;46916;40.564;-7.958;2023-04-27T09:17:52;97183.19;;;20.97;56.40
61035;BME280;46916;40.564;-7.958;2023-04-27T09:20:03;97193.25;;;21.01;56.76
61035;BME280;46916;40.564;-7.958;2023-04-27T09:22:10;97183.00;;;21.05;56.86
61035;BME280;46916;40.564;-7.958;2023-04-27T09:24:12;97190.59;;;21.08;56.59
61035;BME280;46916;40.564;-7.958;2023-04-27T09:26:19;97188.97;;;21.14;56.76
61035;BME280;46916;40.564;-7.958;2023-04-27T09:28:22;97188.78;;;21.22;57.32
61035;BME280;46916;40.564;-7.958;2023-04-27T09:30:26;97181.41;;;21.31;57.26
61035;BME280;46916;40.564;-7.958;2023-04-27T09:32:27;97180.84;;;21.35;56.52
61035;BME280;46916;40.564;-7.958;2023-04-27T09:34:37;97177.13;;;21.43;56.35
61035;BME280;46916;40.564;-7.958;2023-04-27T09:36:39;97180.03;;;21.48;56.62
61035;BME280;46916;40.564;-7.958;2023-04-27T09:38:40;97189.03;;;21.54;55.85
61035;BME280;46916;40.564;-7.958;2023-04-27T09:40:41;97189.44;;;21.57;55.10
61035;BME280;46916;40.564;-7.958;2023-04-27T09:42:42;97180.25;;;21.60;54.38
61035;BME280;46916;40.564;-7.958;2023-04-27T09:44:43;97184.53;;;21.61;54.39
61035;BME280;46916;40.564;-7.958;2023-04-27T09:46:45;97186.56;;;21.59;54.73
61035;BME280;46916;40.564;-7.958;2023-04-27T09:48:49;97175.91;;;21.59;54.91
61035;BME280;46916;40.564;-7.958;2023-04-27T09:50:51;97171.00;;;21.62;54.81
61035;BME280;46916;40.564;-7.958;2023-04-27T09:52:52;97165.03;;;21.67;54.80
61035;BME280;46916;40.564;-7.958;2023-04-27T09:54:56;97173.44;;;21.70;54.30
61035;BME280;46916;40.564;-7.958;2023-04-27T09:57:24;97163.81;;;21.76;53.42
61035;BME280;46916;40.564;-7.958;2023-04-27T09:59:45;97164.84;;;21.82;53.18
61035;BME280;46916;40.564;-7.958;2023-04-27T10:01:50;97163.38;;;21.86;52.78
61035;BME280;46916;40.564;-7.958;2023-04-27T10:03:59;97164.84;;;21.88;52.53
61035;BME280;46916;40.564;-7.958;2023-04-27T10:08:35;97164.22;;;21.93;51.82
61035;BME280;46916;40.564;-7.958;2023-04-27T10:10:45;97168.50;;;22.00;49.77
61035;BME280;46916;40.564;-7.958;2023-04-27T10:13:00;97157.22;;;22.05;48.97
61035;BME280;46916;40.564;-7.958;2023-04-27T10:15:15;97168.09;;;22.17;48.65
61035;BME280;46916;40.564;-7.958;2023-04-27T10:17:16;97162.72;;;22.23;48.10
61035;BME280;46916;40.564;-7.958;2023-04-27T10:19:18;97156.31;;;22.31;47.46
61035;BME280;46916;40.564;-7.958;2023-04-27T10:21:20;97155.69;;;22.42;45.78
61035;BME280;46916;40.564;-7.958;2023-04-27T10:23:23;97159.75;;;22.45;45.40
61035;BME280;46916;40.564;-7.958;2023-04-27T10:25:26;97164.25;;;22.51;44.98
61035;BME280;46916;40.564;-7.958;2023-04-27T10:27:38;97168.94;;;22.62;45.41
61035;BME280;46916;40.564;-7.958;2023-04-27T10:29:41;97170.34;;;22.65;45.59
61035;BME280;46916;40.564;-7.958;2023-04-27T10:31:43;97177.13;;;22.67;45.43
61035;BME280;46916;40.564;-7.958;2023-04-27T10:33:46;97174.44;;;22.67;45.34
61035;BME280;46916;40.564;-7.958;2023-04-27T10:35:57;97183.28;;;22.68;45.67
61035;BME280;46916;40.564;-7.958;2023-04-27T10:40:11;97184.06;;;22.75;44.88
61035;BME280;46916;40.564;-7.958;2023-04-27T10:42:26;97177.88;;;22.81;44.59